sensor_id;sensor_type;location;lat;lon;timestamp;temperature;humidity
76878;DHT22;65843;50.692;12.844;2023-11-19T00:00:17;9.60;69.50
76878;DHT22;65843;50.692;12.844;2023-11-19T00:01:18;9.60;69.60
76878;DHT22;65843;50.692;12.844;2023-11-19T00:02:19;9.60;69.70
76878;DHT22;65843;50.692;12.844;2023-11-19T00:03:20;9.60;69.70
76878;DHT22;65843;50.692;12.844;2023-11-19T00:04:21;9.60;69.60
76878;DHT22;65843;50.692;12.844;2023-11-19T00:05:22;9.60;69.70
76878;DHT22;65843;50.692;12.844;2023-11-19T00:06:23;9.60;69.80
76878;DHT22;65843;50.692;12.844;2023-11-19T00:07:24;9.50;69.80
76878;DHT22;65843;50.692;12.844;2023-11-19T00:08:25;9.60;70.00
76878;DHT22;65843;50.692;12.844;2023-11-19T00:09:25;9.50;69.90
76878;DHT22;65843;50.692;12.844;2023-11-19T00:10:26;9.50;70.10
76878;DHT22;65843;50.692;12.844;2023-11-19T00:11:27;9.50;70.10
76878;DHT22;65843;50.692;12.844;2023-11-19T00:12:28;9.60;70.00
76878;DHT22;65843;50.692;12.844;2023-11-19T00:13:30;9.60;70.00
76878;DHT22;65843;50.692;12.844;2023-11-19T00:14:30;9.60;69.90
76878;DHT22;65843;50.692;12.844;2023-11-19T00:15:31;9.60;69.80
76878;DHT22;65843;50.692;12.844;2023-11-19T00:16:32;9.60;69.70
76878;DHT22;65843;50.692;12.844;2023-11-19T00:17:33;9.60;69.70
76878;DHT22;65843;50.692;12.844;2023-11-19T00:18:35;9.60;69.70
76878;DHT22;65843;50.692;12.844;2023-11-19T00:19:36;9.60;69.70
76878;DHT22;65843;50.692;12.844;2023-11-19T00:20:37;9.60;69.70
76878;DHT22;65843;50.692;12.844;2023-11-19T00:21:38;9.60;69.80
76878;DHT22;65843;50.692;12.844;2023-11-19T00:22:41;9.60;69.70
76878;DHT22;65843;50.692;12.844;2023-11-19T00:23:43;9.60;69.70
76878;DHT22;65843;50.692;12.844;2023-11-19T00:24:44;9.60;69.60
76878;DHT22;65843;50.692;12.844;2023-11-19T00:25:45;9.60;69.60
76878;DHT22;65843;50.692;12.844;2023-11-19T00:26:48;9.70;69.60
76878;DHT22;65843;50.692;12.844;2023-11-19T00:27:50;9.70;69.60
76878;DHT22;65843;50.692;12.844;2023-11-19T00:28:52;9.70;69.70
76878;DHT22;65843;50.692;12.844;2023-11-19T00:29:53;9.70;69.60
76878;DHT22;65843;50.692;12.844;2023-11-19T00:30:54;9.70;69.50
76878;DHT22;65843;50.692;12.844;2023-11-19T00:31:56;9.70;69.50
76878;DHT22;65843;50.692;12.844;2023-11-19T00:32:57;9.70;69.50
76878;DHT22;65843;50.692;12.844;2023-11-19T00:33:58;9.80;69.30
76878;DHT22;65843;50.692;12.844;2023-11-19T00:34:59;9.80;69.30
76878;DHT22;65843;50.692;12.844;2023-11-19T00:36:00;9.80;69.20
76878;DHT22;65843;50.692;12.844;2023-11-19T00:37:01;9.70;69.40
76878;DHT22;65843;50.692;12.844;2023-11-19T00:38:02;9.80;69.30
76878;DHT22;65843;50.692;12.844;2023-11-19T00:39:04;9.80;69.30
76878;DHT22;65843;50.692;12.844;2023-11-19T00:40:06;9.70;69.30
76878;DHT22;65843;50.692;12.844;2023-11-19T00:41:07;9.70;69.40
76878;DHT22;65843;50.692;12.844;2023-11-19T00:42:08;9.70;69.40
76878;DHT22;65843;50.692;12.844;2023-11-19T00:43:10;9.70;69.40
76878;DHT22;65843;50.692;12.844;2023-11-19T00:44:11;9.70;69.70
76878;DHT22;65843;50.692;12.844;2023-11-19T00:45:12;9.70;69.40
76878;DHT22;65843;50.692;12.844;2023-11-19T00:46:13;9.70;69.80
76878;DHT22;65843;50.692;12.844;2023-11-19T00:47:14;9.70;69.70
76878;DHT22;65843;50.692;12.844;2023-11-19T00:48:15;9.70;69.50
76878;DHT22;65843;50.692;12.844;2023-11-19T00:49:16;9.70;69.70
76878;DHT22;65843;50.692;12.844;2023-11-19T00:50:17;9.70;69.60
76878;DHT22;65843;50.692;12.844;2023-11-19T00:51:18;9.70;69.80
76878;DHT22;65843;50.692;12.844;2023-11-19T00:52:19;9.70;69.80
76878;DHT22;65843;50.692;12.844;2023-11-19T00:53:21;9.70;69.80
76878;DHT22;65843;50.692;12.844;2023-11-19T00:54:21;9.70;69.80
76878;DHT22;65843;50.692;12.844;2023-11-19T00:55:26;9.70;69.80
76878;DHT22;65843;50.692;12.844;2023-11-19T00:56:27;9.70;69.90
76878;DHT22;65843;50.692;12.844;2023-11-19T00:57:29;9.70;69.80
76878;DHT22;65843;50.692;12.844;2023-11-19T00:58:29;9.70;69.80
76878;DHT22;65843;50.692;12.844;2023-11-19T00:59:31;9.70;69.90
76878;DHT22;65843;50.692;12.844;2023-11-19T01:00:32;9.70;70.20
76878;DHT22;65843;50.692;12.844;2023-11-19T01:01:33;9.70;70.20
76878;DHT22;65843;50.692;12.844;2023-11-19T01:02:34;9.70;70.00
76878;DHT22;65843;50.692;12.844;2023-11-19T01:03:35;9.70;70.00
76878;DHT22;65843;50.692;12.844;2023-11-19T01:04:36;9.70;69.90
76878;DHT22;65843;50.692;12.844;2023-11-19T01:05:37;9.70;70.00
76878;DHT22;65843;50.692;12.844;2023-11-19T01:06:38;9.70;70.10
76878;DHT22;65843;50.692;12.844;2023-11-19T01:07:39;9.70;69.80
76878;DHT22;65843;50.692;12.844;2023-11-19T01:08:42;9.70;70.20
76878;DHT22;65843;50.692;12.844;2023-11-19T01:09:43;9.70;70.30
76878;DHT22;65843;50.692;12.844;2023-11-19T01:10:43;9.70;70.00
76878;DHT22;65843;50.692;12.844;2023-11-19T01:11:44;9.70;69.80
76878;DHT22;65843;50.692;12.844;2023-11-19T01:12:45;9.70;69.90
76878;DHT22;65843;50.692;12.844;2023-11-19T01:13:46;9.70;70.00
76878;DHT22;65843;50.692;12.844;2023-11-19T01:14:47;9.70;69.80
76878;DHT22;65843;50.692;12.844;2023-11-19T01:15:48;9.70;69.90
76878;DHT22;65843;50.692;12.844;2023-11-19T01:16:49;9.70;69.80
76878;DHT22;65843;50.692;12.844;2023-11-19T01:17:50;9.80;70.00
76878;DHT22;65843;50.692;12.844;2023-11-19T01:18:51;9.80;70.20
76878;DHT22;65843;50.692;12.844;2023-11-19T01:19:53;9.80;69.90
76878;DHT22;65843;50.692;12.844;2023-11-19T01:20:53;9.80;69.80
76878;DHT22;65843;50.692;12.844;2023-11-19T01:21:54;9.80;69.90
76878;DHT22;65843;50.692;12.844;2023-11-19T01:22:56;9.80;69.80
76878;DHT22;65843;50.692;12.844;2023-11-19T01:23:57;9.80;69.80
76878;DHT22;65843;50.692;12.844;2023-11-19T01:25:00;9.80;69.90
76878;DHT22;65843;50.692;12.844;2023-11-19T01:26:01;9.80;69.80
76878;DHT22;65843;50.692;12.844;2023-11-19T01:27:01;9.80;69.80
76878;DHT22;65843;50.692;12.844;2023-11-19T01:28:02;9.80;69.90
76878;DHT22;65843;50.692;12.844;2023-11-19T01:29:05;9.80;69.90
76878;DHT22;65843;50.692;12.844;2023-11-19T01:30:07;9.80;69.90
76878;DHT22;65843;50.692;12.844;2023-11-19T01:31:14;9.70;69.90
76878;DHT22;65843;50.692;12.844;2023-11-19T01:32:15;9.70;70.00
76878;DHT22;65843;50.692;12.844;2023-11-19T01:33:16;9.70;70.20
76878;DHT22;65843;50.692;12.844;2023-11-19T01:34:17;9.70;70.10
76878;DHT22;65843;50.692;12.844;2023-11-19T01:35:18;9.70;70.00
76878;DHT22;65843;50.692;12.844;2023-11-19T01:36:19;9.70;70.30
76878;DHT22;65843;50.692;12.844;2023-11-19T01:37:21;9.70;70.10
76878;DHT22;65843;50.692;12.844;2023-11-19T01:38:22;9.70;70.00
76878;DHT22;65843;50.692;12.844;2023-11-19T01:39:23;9.70;70.00
76878;DHT22;65843;50.692;12.844;2023-11-19T01:40:24;9.70;70.20
76878;DHT22;65843;50.692;12.844;2023-11-19T01:41:25;9.70;70.10
76878;DHT22;65843;50.692;12.844;2023-11-19T01:42:26;9.70;70.30
76878;DHT22;65843;50.692;12.844;2023-11-19T01:43:31;9.70;70.10
76878;DHT22;65843;50.692;12.844;2023-11-19T01:44:32;9.70;70.20
76878;DHT22;65843;50.692;12.844;2023-11-19T01:45:33;9.70;70.30
76878;DHT22;65843;50.692;12.844;2023-11-19T01:46:34;9.70;70.20
76878;DHT22;65843;50.692;12.844;2023-11-19T01:47:36;9.70;70.30
76878;DHT22;65843;50.692;12.844;2023-11-19T01:48:40;9.70;70.40
76878;DHT22;65843;50.692;12.844;2023-11-19T01:49:41;9.70;70.40
76878;DHT22;65843;50.692;12.844;2023-11-19T01:50:42;9.70;70.50
76878;DHT22;65843;50.692;12.844;2023-11-19T01:51:43;9.60;70.40
76878;DHT22;65843;50.692;12.844;2023-11-19T01:52:45;9.60;70.50
76878;DHT22;65843;50.692;12.844;2023-11-19T01:53:46;9.60;70.30
76878;DHT22;65843;50.692;12.844;2023-11-19T01:54:48;9.70;70.50
76878;DHT22;65843;50.692;12.844;2023-11-19T01:55:49;9.70;70.40
76878;DHT22;65843;50.692;12.844;2023-11-19T01:56:50;9.60;70.40
76878;DHT22;65843;50.692;12.844;2023-11-19T01:57:53;9.70;70.50
76878;DHT22;65843;50.692;12.844;2023-11-19T01:58:56;9.70;70.40
76878;DHT22;65843;50.692;12.844;2023-11-19T01:59:57;9.70;70.50
76878;DHT22;65843;50.692;12.844;2023-11-19T02:00:58;9.70;70.50
76878;DHT22;65843;50.692;12.844;2023-11-19T02:02:00;9.70;70.30
76878;DHT22;65843;50.692;12.844;2023-11-19T02:03:01;9.70;70.10
76878;DHT22;65843;50.692;12.844;2023-11-19T02:04:02;9.80;70.20
76878;DHT22;65843;50.692;12.844;2023-11-19T02:05:03;9.80;70.20
76878;DHT22;65843;50.692;12.844;2023-11-19T02:06:04;9.70;70.10
76878;DHT22;65843;50.692;12.844;2023-11-19T02:07:05;9.70;70.10
76878;DHT22;65843;50.692;12.844;2023-11-19T02:08:06;9.70;70.00
76878;DHT22;65843;50.692;12.844;2023-11-19T02:09:07;9.70;70.10
76878;DHT22;65843;50.692;12.844;2023-11-19T02:10:08;9.70;70.20
76878;DHT22;65843;50.692;12.844;2023-11-19T02:11:13;9.70;70.00
76878;DHT22;65843;50.692;12.844;2023-11-19T02:12:14;9.70;70.10
76878;DHT22;65843;50.692;12.844;2023-11-19T02:13:15;9.70;70.00
76878;DHT22;65843;50.692;12.844;2023-11-19T02:14:17;9.70;70.00
76878;DHT22;65843;50.692;12.844;2023-11-19T02:15:18;9.70;70.10
76878;DHT22;65843;50.692;12.844;2023-11-19T02:16:25;9.70;70.30
76878;DHT22;65843;50.692;12.844;2023-11-19T02:17:29;9.70;70.20
76878;DHT22;65843;50.692;12.844;2023-11-19T02:18:35;9.70;70.20
76878;DHT22;65843;50.692;12.844;2023-11-19T02:19:35;9.70;70.40
76878;DHT22;65843;50.692;12.844;2023-11-19T02:20:36;9.70;70.40
76878;DHT22;65843;50.692;12.844;2023-11-19T02:21:37;9.70;70.30
76878;DHT22;65843;50.692;12.844;2023-11-19T02:22:38;9.70;70.50
76878;DHT22;65843;50.692;12.844;2023-11-19T02:23:39;9.70;70.50
76878;DHT22;65843;50.692;12.844;2023-11-19T02:24:41;9.70;70.50
76878;DHT22;65843;50.692;12.844;2023-11-19T02:25:42;9.70;70.50
76878;DHT22;65843;50.692;12.844;2023-11-19T02:27:53;9.70;70.30
76878;DHT22;65843;50.692;12.844;2023-11-19T02:28:58;9.70;70.30
76878;DHT22;65843;50.692;12.844;2023-11-19T02:29:59;9.70;70.30
76878;DHT22;65843;50.692;12.844;2023-11-19T02:31:00;9.80;70.50
76878;DHT22;65843;50.692;12.844;2023-11-19T02:32:01;9.70;70.40
76878;DHT22;65843;50.692;12.844;2023-11-19T02:33:02;9.80;70.40
76878;DHT22;65843;50.692;12.844;2023-11-19T02:34:06;9.80;70.50
76878;DHT22;65843;50.692;12.844;2023-11-19T02:35:07;9.70;70.50
76878;DHT22;65843;50.692;12.844;2023-11-19T02:36:11;9.70;70.50
76878;DHT22;65843;50.692;12.844;2023-11-19T02:37:12;9.70;70.50
76878;DHT22;65843;50.692;12.844;2023-11-19T02:38:15;9.70;70.70
76878;DHT22;65843;50.692;12.844;2023-11-19T02:39:16;9.70;70.70
76878;DHT22;65843;50.692;12.844;2023-11-19T02:40:22;9.70;70.90
76878;DHT22;65843;50.692;12.844;2023-11-19T02:41:25;9.70;70.90
76878;DHT22;65843;50.692;12.844;2023-11-19T02:42:26;9.70;71.00
76878;DHT22;65843;50.692;12.844;2023-11-19T02:43:27;9.70;70.70
76878;DHT22;65843;50.692;12.844;2023-11-19T02:44:28;9.70;70.70
76878;DHT22;65843;50.692;12.844;2023-11-19T02:45:31;9.70;70.70
76878;DHT22;65843;50.692;12.844;2023-11-19T02:46:32;9.70;70.80
76878;DHT22;65843;50.692;12.844;2023-11-19T02:47:33;9.70;70.80
76878;DHT22;65843;50.692;12.844;2023-11-19T02:48:34;9.70;70.70
76878;DHT22;65843;50.692;12.844;2023-11-19T02:49:36;9.80;70.70
76878;DHT22;65843;50.692;12.844;2023-11-19T02:50:38;9.80;70.70
76878;DHT22;65843;50.692;12.844;2023-11-19T02:51:38;9.80;70.60
76878;DHT22;65843;50.692;12.844;2023-11-19T02:52:43;9.80;70.70
76878;DHT22;65843;50.692;12.844;2023-11-19T02:53:44;9.80;70.50
76878;DHT22;65843;50.692;12.844;2023-11-19T02:54:49;9.90;70.40
76878;DHT22;65843;50.692;12.844;2023-11-19T02:55:51;9.90;70.70
76878;DHT22;65843;50.692;12.844;2023-11-19T02:56:52;9.80;70.60
76878;DHT22;65843;50.692;12.844;2023-11-19T02:57:56;9.80;70.60
76878;DHT22;65843;50.692;12.844;2023-11-19T02:58:59;9.80;70.70
76878;DHT22;65843;50.692;12.844;2023-11-19T03:00:00;9.80;70.60
76878;DHT22;65843;50.692;12.844;2023-11-19T03:01:01;9.80;70.50
76878;DHT22;65843;50.692;12.844;2023-11-19T03:02:13;9.80;70.50
76878;DHT22;65843;50.692;12.844;2023-11-19T03:03:16;9.80;70.70
76878;DHT22;65843;50.692;12.844;2023-11-19T03:04:26;9.80;70.70
76878;DHT22;65843;50.692;12.844;2023-11-19T03:05:27;9.80;70.80
76878;DHT22;65843;50.692;12.844;2023-11-19T03:06:31;9.80;70.60
76878;DHT22;65843;50.692;12.844;2023-11-19T03:07:32;9.80;70.70
76878;DHT22;65843;50.692;12.844;2023-11-19T03:08:34;9.80;70.60
76878;DHT22;65843;50.692;12.844;2023-11-19T03:09:35;9.80;70.70
76878;DHT22;65843;50.692;12.844;2023-11-19T03:10:36;9.80;70.70
76878;DHT22;65843;50.692;12.844;2023-11-19T03:11:37;9.80;70.90
76878;DHT22;65843;50.692;12.844;2023-11-19T03:12:39;9.80;70.90
76878;DHT22;65843;50.692;12.844;2023-11-19T03:13:40;9.80;70.90
76878;DHT22;65843;50.692;12.844;2023-11-19T03:14:41;9.80;70.80
76878;DHT22;65843;50.692;12.844;2023-11-19T03:15:43;9.80;70.80
76878;DHT22;65843;50.692;12.844;2023-11-19T03:16:46;9.80;70.70
76878;DHT22;65843;50.692;12.844;2023-11-19T03:17:47;9.80;70.80
76878;DHT22;65843;50.692;12.844;2023-11-19T03:18:48;9.80;70.70
76878;DHT22;65843;50.692;12.844;2023-11-19T03:19:49;9.80;70.80
76878;DHT22;65843;50.692;12.844;2023-11-19T03:20:50;9.80;70.80
76878;DHT22;65843;50.692;12.844;2023-11-19T03:21:52;9.80;70.80
76878;DHT22;65843;50.692;12.844;2023-11-19T03:22:54;9.80;70.90
76878;DHT22;65843;50.692;12.844;2023-11-19T03:23:55;9.80;70.90
76878;DHT22;65843;50.692;12.844;2023-11-19T03:24:56;9.80;70.80
76878;DHT22;65843;50.692;12.844;2023-11-19T03:25:57;9.80;71.00
76878;DHT22;65843;50.692;12.844;2023-11-19T03:26:58;9.70;71.00
76878;DHT22;65843;50.692;12.844;2023-11-19T03:28:00;9.70;71.00
76878;DHT22;65843;50.692;12.844;2023-11-19T03:29:04;9.80;71.10
76878;DHT22;65843;50.692;12.844;2023-11-19T03:30:05;9.70;71.00
76878;DHT22;65843;50.692;12.844;2023-11-19T03:31:06;9.70;71.20
76878;DHT22;65843;50.692;12.844;2023-11-19T03:32:10;9.70;71.20
76878;DHT22;65843;50.692;12.844;2023-11-19T03:33:12;9.70;71.20
76878;DHT22;65843;50.692;12.844;2023-11-19T03:34:13;9.70;71.20
76878;DHT22;65843;50.692;12.844;2023-11-19T03:35:14;9.70;71.20
76878;DHT22;65843;50.692;12.844;2023-11-19T03:36:15;9.70;71.20
76878;DHT22;65843;50.692;12.844;2023-11-19T03:37:16;9.80;71.10
76878;DHT22;65843;50.692;12.844;2023-11-19T03:38:18;9.80;71.00
76878;DHT22;65843;50.692;12.844;2023-11-19T03:39:19;9.70;71.00
76878;DHT22;65843;50.692;12.844;2023-11-19T03:40:19;9.80;71.00
76878;DHT22;65843;50.692;12.844;2023-11-19T03:41:20;9.80;71.00
76878;DHT22;65843;50.692;12.844;2023-11-19T03:42:21;9.80;70.90
76878;DHT22;65843;50.692;12.844;2023-11-19T03:43:23;9.80;70.90
76878;DHT22;65843;50.692;12.844;2023-11-19T03:44:24;9.80;70.90
76878;DHT22;65843;50.692;12.844;2023-11-19T03:45:27;9.80;71.00
76878;DHT22;65843;50.692;12.844;2023-11-19T03:46:28;9.80;71.20
76878;DHT22;65843;50.692;12.844;2023-11-19T03:47:30;9.80;71.40
76878;DHT22;65843;50.692;12.844;2023-11-19T03:48:31;9.80;71.20
76878;DHT22;65843;50.692;12.844;2023-11-19T03:49:32;9.80;71.10
76878;DHT22;65843;50.692;12.844;2023-11-19T03:50:33;9.80;71.00
76878;DHT22;65843;50.692;12.844;2023-11-19T03:51:34;9.80;71.00
76878;DHT22;65843;50.692;12.844;2023-11-19T03:52:35;9.80;71.00
76878;DHT22;65843;50.692;12.844;2023-11-19T03:53:36;9.80;71.10
76878;DHT22;65843;50.692;12.844;2023-11-19T03:54:37;9.80;71.00
76878;DHT22;65843;50.692;12.844;2023-11-19T03:55:38;9.80;71.10
76878;DHT22;65843;50.692;12.844;2023-11-19T03:56:39;9.80;71.10
76878;DHT22;65843;50.692;12.844;2023-11-19T03:57:40;9.80;71.20
76878;DHT22;65843;50.692;12.844;2023-11-19T03:58:41;9.80;71.10
76878;DHT22;65843;50.692;12.844;2023-11-19T03:59:42;9.80;71.20
76878;DHT22;65843;50.692;12.844;2023-11-19T04:00:43;9.80;71.30
76878;DHT22;65843;50.692;12.844;2023-11-19T04:01:44;9.80;71.20
76878;DHT22;65843;50.692;12.844;2023-11-19T04:02:45;9.80;71.40
76878;DHT22;65843;50.692;12.844;2023-11-19T04:03:47;9.80;71.40
76878;DHT22;65843;50.692;12.844;2023-11-19T04:04:48;9.80;71.50
76878;DHT22;65843;50.692;12.844;2023-11-19T04:05:49;9.80;71.40
76878;DHT22;65843;50.692;12.844;2023-11-19T04:06:50;9.80;71.30
76878;DHT22;65843;50.692;12.844;2023-11-19T04:07:51;9.80;71.50
76878;DHT22;65843;50.692;12.844;2023-11-19T04:08:52;9.80;71.40
76878;DHT22;65843;50.692;12.844;2023-11-19T04:09:52;9.80;71.50
76878;DHT22;65843;50.692;12.844;2023-11-19T04:10:53;9.80;71.50
76878;DHT22;65843;50.692;12.844;2023-11-19T04:11:54;9.80;71.40
76878;DHT22;65843;50.692;12.844;2023-11-19T04:12:55;9.80;71.40
76878;DHT22;65843;50.692;12.844;2023-11-19T04:13:56;9.80;71.40
76878;DHT22;65843;50.692;12.844;2023-11-19T04:14:57;9.80;71.50
76878;DHT22;65843;50.692;12.844;2023-11-19T04:15:58;9.80;71.50
76878;DHT22;65843;50.692;12.844;2023-11-19T04:16:59;9.80;71.50
76878;DHT22;65843;50.692;12.844;2023-11-19T04:18:00;9.70;71.60
76878;DHT22;65843;50.692;12.844;2023-11-19T04:19:01;9.70;71.80
76878;DHT22;65843;50.692;12.844;2023-11-19T04:20:02;9.70;72.00
76878;DHT22;65843;50.692;12.844;2023-11-19T04:21:07;9.80;71.70
76878;DHT22;65843;50.692;12.844;2023-11-19T04:22:08;9.80;71.60
76878;DHT22;65843;50.692;12.844;2023-11-19T04:23:09;9.80;71.60
76878;DHT22;65843;50.692;12.844;2023-11-19T04:24:10;9.80;71.50
76878;DHT22;65843;50.692;12.844;2023-11-19T04:25:13;9.80;71.50
76878;DHT22;65843;50.692;12.844;2023-11-19T04:26:15;9.80;71.40
76878;DHT22;65843;50.692;12.844;2023-11-19T04:27:16;9.90;71.40
76878;DHT22;65843;50.692;12.844;2023-11-19T04:28:17;9.90;71.40
76878;DHT22;65843;50.692;12.844;2023-11-19T04:29:18;9.90;71.30
76878;DHT22;65843;50.692;12.844;2023-11-19T04:30:20;9.90;71.20
76878;DHT22;65843;50.692;12.844;2023-11-19T04:31:21;9.90;71.30
76878;DHT22;65843;50.692;12.844;2023-11-19T04:32:21;9.90;71.40
76878;DHT22;65843;50.692;12.844;2023-11-19T04:33:22;10.00;71.30
76878;DHT22;65843;50.692;12.844;2023-11-19T04:34:23;9.90;71.20
76878;DHT22;65843;50.692;12.844;2023-11-19T04:35:24;10.00;71.50
76878;DHT22;65843;50.692;12.844;2023-11-19T04:36:26;9.90;71.60
76878;DHT22;65843;50.692;12.844;2023-11-19T04:37:28;9.90;71.80
76878;DHT22;65843;50.692;12.844;2023-11-19T04:38:29;9.90;71.60
76878;DHT22;65843;50.692;12.844;2023-11-19T04:39:29;9.90;71.50
76878;DHT22;65843;50.692;12.844;2023-11-19T04:40:31;10.00;71.40
76878;DHT22;65843;50.692;12.844;2023-11-19T04:41:32;9.90;71.50
76878;DHT22;65843;50.692;12.844;2023-11-19T04:42:33;9.90;71.60
76878;DHT22;65843;50.692;12.844;2023-11-19T04:43:34;9.90;71.50
76878;DHT22;65843;50.692;12.844;2023-11-19T04:44:34;9.90;71.60
76878;DHT22;65843;50.692;12.844;2023-11-19T04:45:35;9.90;71.70
76878;DHT22;65843;50.692;12.844;2023-11-19T04:46:36;9.90;71.70
76878;DHT22;65843;50.692;12.844;2023-11-19T04:47:37;10.00;71.70
76878;DHT22;65843;50.692;12.844;2023-11-19T04:48:38;9.90;71.80
76878;DHT22;65843;50.692;12.844;2023-11-19T04:49:40;9.90;71.80
76878;DHT22;65843;50.692;12.844;2023-11-19T04:50:41;9.90;71.90
76878;DHT22;65843;50.692;12.844;2023-11-19T04:51:42;9.90;72.10
76878;DHT22;65843;50.692;12.844;2023-11-19T04:52:43;9.90;72.10
76878;DHT22;65843;50.692;12.844;2023-11-19T04:53:45;9.90;71.90
76878;DHT22;65843;50.692;12.844;2023-11-19T04:54:46;9.90;72.00
76878;DHT22;65843;50.692;12.844;2023-11-19T04:55:48;9.90;72.10
76878;DHT22;65843;50.692;12.844;2023-11-19T04:56:49;9.90;72.10
76878;DHT22;65843;50.692;12.844;2023-11-19T04:57:50;9.90;72.00
76878;DHT22;65843;50.692;12.844;2023-11-19T04:58:51;9.90;72.10
76878;DHT22;65843;50.692;12.844;2023-11-19T04:59:52;9.90;72.10
76878;DHT22;65843;50.692;12.844;2023-11-19T05:00:53;9.90;72.20
76878;DHT22;65843;50.692;12.844;2023-11-19T05:01:54;9.90;72.20
76878;DHT22;65843;50.692;12.844;2023-11-19T05:02:55;9.90;72.30
76878;DHT22;65843;50.692;12.844;2023-11-19T05:03:56;9.80;72.30
76878;DHT22;65843;50.692;12.844;2023-11-19T05:05:00;9.80;72.30
76878;DHT22;65843;50.692;12.844;2023-11-19T05:06:00;9.80;72.40
76878;DHT22;65843;50.692;12.844;2023-11-19T05:07:01;9.80;72.60
76878;DHT22;65843;50.692;12.844;2023-11-19T05:08:02;9.80;72.70
76878;DHT22;65843;50.692;12.844;2023-11-19T05:09:03;9.80;72.60
76878;DHT22;65843;50.692;12.844;2023-11-19T05:10:14;9.80;72.80
76878;DHT22;65843;50.692;12.844;2023-11-19T05:11:15;9.80;72.70
76878;DHT22;65843;50.692;12.844;2023-11-19T05:12:20;9.80;72.30
76878;DHT22;65843;50.692;12.844;2023-11-19T05:13:20;9.80;72.50
76878;DHT22;65843;50.692;12.844;2023-11-19T05:14:21;9.90;72.60
76878;DHT22;65843;50.692;12.844;2023-11-19T05:15:22;9.90;72.50
76878;DHT22;65843;50.692;12.844;2023-11-19T05:16:23;10.00;72.30
76878;DHT22;65843;50.692;12.844;2023-11-19T05:17:24;10.00;72.40
76878;DHT22;65843;50.692;12.844;2023-11-19T05:18:25;10.00;72.10
76878;DHT22;65843;50.692;12.844;2023-11-19T05:19:26;10.00;72.20
76878;DHT22;65843;50.692;12.844;2023-11-19T05:20:27;10.00;72.10
76878;DHT22;65843;50.692;12.844;2023-11-19T05:21:28;10.00;72.20
76878;DHT22;65843;50.692;12.844;2023-11-19T05:22:30;10.00;72.10
76878;DHT22;65843;50.692;12.844;2023-11-19T05:23:30;10.00;72.20
76878;DHT22;65843;50.692;12.844;2023-11-19T05:24:31;10.00;72.10
76878;DHT22;65843;50.692;12.844;2023-11-19T05:25:32;10.00;72.70
76878;DHT22;65843;50.692;12.844;2023-11-19T05:26:33;10.00;72.90
76878;DHT22;65843;50.692;12.844;2023-11-19T05:27:35;10.00;72.80
76878;DHT22;65843;50.692;12.844;2023-11-19T05:28:37;10.00;72.70
76878;DHT22;65843;50.692;12.844;2023-11-19T05:29:38;10.00;72.50
76878;DHT22;65843;50.692;12.844;2023-11-19T05:30:40;10.00;72.50
76878;DHT22;65843;50.692;12.844;2023-11-19T05:31:41;10.00;72.60
76878;DHT22;65843;50.692;12.844;2023-11-19T05:32:42;10.00;72.50
76878;DHT22;65843;50.692;12.844;2023-11-19T05:33:44;10.00;72.60
76878;DHT22;65843;50.692;12.844;2023-11-19T05:34:45;10.00;72.70
76878;DHT22;65843;50.692;12.844;2023-11-19T05:35:45;10.00;72.50
76878;DHT22;65843;50.692;12.844;2023-11-19T05:36:47;10.00;72.50
76878;DHT22;65843;50.692;12.844;2023-11-19T05:37:48;10.00;72.60
76878;DHT22;65843;50.692;12.844;2023-11-19T05:38:50;10.00;72.60
76878;DHT22;65843;50.692;12.844;2023-11-19T05:39:51;10.00;72.60
76878;DHT22;65843;50.692;12.844;2023-11-19T05:40:53;10.00;72.90
76878;DHT22;65843;50.692;12.844;2023-11-19T05:41:53;10.00;73.10
76878;DHT22;65843;50.692;12.844;2023-11-19T05:42:54;10.00;73.00
76878;DHT22;65843;50.692;12.844;2023-11-19T05:43:55;10.00;73.00
76878;DHT22;65843;50.692;12.844;2023-11-19T05:44:57;10.00;73.00
76878;DHT22;65843;50.692;12.844;2023-11-19T05:45:58;10.00;73.00
76878;DHT22;65843;50.692;12.844;2023-11-19T05:46:59;10.00;72.80
76878;DHT22;65843;50.692;12.844;2023-11-19T05:48:00;10.00;73.00
76878;DHT22;65843;50.692;12.844;2023-11-19T05:49:01;10.00;72.90
76878;DHT22;65843;50.692;12.844;2023-11-19T05:50:02;10.00;73.00
76878;DHT22;65843;50.692;12.844;2023-11-19T05:51:03;10.00;72.90
76878;DHT22;65843;50.692;12.844;2023-11-19T05:52:04;10.00;72.90
76878;DHT22;65843;50.692;12.844;2023-11-19T05:53:08;10.00;73.20
76878;DHT22;65843;50.692;12.844;2023-11-19T05:54:14;10.00;73.00
76878;DHT22;65843;50.692;12.844;2023-11-19T05:55:15;10.00;73.10
76878;DHT22;65843;50.692;12.844;2023-11-19T05:56:16;10.00;73.00
76878;DHT22;65843;50.692;12.844;2023-11-19T05:57:22;10.00;73.20
76878;DHT22;65843;50.692;12.844;2023-11-19T05:58:26;10.00;73.20
76878;DHT22;65843;50.692;12.844;2023-11-19T05:59:29;10.00;73.20
76878;DHT22;65843;50.692;12.844;2023-11-19T06:00:30;10.00;73.20
76878;DHT22;65843;50.692;12.844;2023-11-19T06:01:31;10.00;72.90
76878;DHT22;65843;50.692;12.844;2023-11-19T06:02:32;10.00;72.70
76878;DHT22;65843;50.692;12.844;2023-11-19T06:03:33;10.00;73.00
76878;DHT22;65843;50.692;12.844;2023-11-19T06:04:34;10.00;72.90
76878;DHT22;65843;50.692;12.844;2023-11-19T06:05:35;10.00;72.60
76878;DHT22;65843;50.692;12.844;2023-11-19T06:06:36;10.00;72.70
76878;DHT22;65843;50.692;12.844;2023-11-19T06:07:37;10.00;72.60
76878;DHT22;65843;50.692;12.844;2023-11-19T06:08:39;10.00;72.70
76878;DHT22;65843;50.692;12.844;2023-11-19T06:09:40;10.00;72.70
76878;DHT22;65843;50.692;12.844;2023-11-19T06:10:42;10.00;72.60
76878;DHT22;65843;50.692;12.844;2023-11-19T06:11:43;10.00;72.60
76878;DHT22;65843;50.692;12.844;2023-11-19T06:12:45;10.10;72.80
76878;DHT22;65843;50.692;12.844;2023-11-19T06:13:46;10.10;72.70
76878;DHT22;65843;50.692;12.844;2023-11-19T06:14:48;10.00;73.20
76878;DHT22;65843;50.692;12.844;2023-11-19T06:15:49;10.10;73.20
76878;DHT22;65843;50.692;12.844;2023-11-19T06:16:51;10.00;73.20
76878;DHT22;65843;50.692;12.844;2023-11-19T06:17:52;10.00;73.10
76878;DHT22;65843;50.692;12.844;2023-11-19T06:18:53;10.00;73.00
76878;DHT22;65843;50.692;12.844;2023-11-19T06:19:54;10.00;73.00
76878;DHT22;65843;50.692;12.844;2023-11-19T06:20:55;10.00;73.00
76878;DHT22;65843;50.692;12.844;2023-11-19T06:21:56;10.00;72.90
76878;DHT22;65843;50.692;12.844;2023-11-19T06:22:57;10.00;72.90
76878;DHT22;65843;50.692;12.844;2023-11-19T06:23:58;10.00;73.00
76878;DHT22;65843;50.692;12.844;2023-11-19T06:24:59;10.00;73.10
76878;DHT22;65843;50.692;12.844;2023-11-19T06:26:00;10.00;73.10
76878;DHT22;65843;50.692;12.844;2023-11-19T06:27:02;10.00;73.10
76878;DHT22;65843;50.692;12.844;2023-11-19T06:28:03;10.00;73.10